メインページ
METAR-TAF:

METAR-TAF

空港 :

テグシガルパ, ホンジュラス

トンコンティン国際空港

緯度: 14-03N, 経度: 087-13W, 海抜: 994m

現時点の気象観測

当レポートは18分前の06:00(UTC)に作成
南/南東の風 6kt
気温 20°C
湿度 78%
気圧 1018 hPa
視程10km以上
高度2800ftの雲はほとんどない

METAR: MHTG 280600Z 15006KT 9999 FEW028 20/16 Q1018 A3006 NOSIG

時間: 00:18 (06:18 UTC)

予報

当レポートは1時間53分前の04:25(UTC)に作成
予報は28日の 06時(UTC)から 29日の 06時(UTC)まで有効
南/南東の風 5kt
視程10km以上
高度2800ftの雲は散在している
28日の 10時(UTC)から 28日の 12時(UTC)まで徐々に
の風 kt
視程: 5000m
高度2600ftの雲はほとんどない
28日の 15時(UTC)から 28日の 17時(UTC)まで徐々に
の風 8kt
視程10km以上
高度3200ftの雲は散在している, 塔状積雲.
29日の 03時(UTC)から 29日の 05時(UTC)まで徐々に
の風 kt
高度2800ftの雲は散在している

TAF: MHTG 280425Z 2806/2906 16005KT 9999 SCT028 TX32/2821Z TN16/2812Z BECMG 2810/2812 00000KT 5000 FU FEW026 BECMG 2815/2817 18008KT 9999 SCT032TCU BECMG 2903/2905 00000KT SCT028

4,000以上の空港の気象観測と天気予報(METAR報とTAF報)

利用可能な観測所は地図上に黄色い丸と赤い丸で示す。

丸の上にカーソルを重ねると観測所名を参照できる。

次にクリックすると気象観測と天気予報を参照できる。

マップの切り替え:黒色「×」印の緑ボタンをクリックして拡大、「-」印の緑ボタンをクリックして縮小、緑色の三角印をクリックして隣りの地図に切り替え


METAR-TAF: